createdAt,value
2023-02-28T00:01:19.868Z,7.78
2023-02-28T00:03:46.870Z,6.32
2023-02-28T00:06:13.820Z,7.57
2023-02-28T00:08:40.760Z,5.07
2023-02-28T00:11:11.153Z,5.93
2023-02-28T00:13:41.067Z,8.50
2023-02-28T00:16:10.991Z,5.40
2023-02-28T00:18:38.329Z,6.97
2023-02-28T00:21:05.816Z,5.47
2023-02-28T00:23:32.686Z,7.60
2023-02-28T00:25:59.582Z,6.30
2023-02-28T00:28:26.815Z,5.60
2023-02-28T00:30:53.733Z,6.72
2023-02-28T00:33:20.674Z,6.18
2023-02-28T00:35:47.887Z,5.90
2023-02-28T00:38:15.679Z,6.53
2023-02-28T00:40:42.747Z,6.82
2023-02-28T00:43:09.895Z,7.45
2023-02-28T00:45:36.810Z,5.88
2023-02-28T00:48:03.836Z,5.28
2023-02-28T00:50:30.727Z,6.68
2023-02-28T00:52:57.576Z,7.85
2023-02-28T00:55:24.366Z,6.78
2023-02-28T00:57:51.237Z,6.55
2023-02-28T01:00:18.429Z,7.82
2023-02-28T01:02:45.273Z,6.97
2023-02-28T01:05:12.079Z,6.75
2023-02-28T01:07:39.428Z,6.72
2023-02-28T01:10:06.668Z,6.43
2023-02-28T01:12:33.584Z,5.97
2023-02-28T01:15:00.418Z,6.55
2023-02-28T01:17:27.509Z,5.93
2023-02-28T01:19:56.742Z,6.57
2023-02-28T01:22:23.862Z,7.53
2023-02-28T01:24:50.694Z,6.95
2023-02-28T01:27:17.533Z,5.80
2023-02-28T01:29:44.420Z,8.35
2023-02-28T01:32:11.356Z,6.53
2023-02-28T01:34:38.212Z,7.03
2023-02-28T01:37:05.360Z,5.97
2023-02-28T01:39:32.196Z,6.28
2023-02-28T01:41:59.034Z,7.82
2023-02-28T01:44:56.497Z,7.50
2023-02-28T01:47:24.963Z,7.07
2023-02-28T01:49:52.653Z,6.72
2023-02-28T01:52:22.649Z,7.47
2023-02-28T01:54:55.275Z,7.05
2023-02-28T01:57:28.040Z,8.55
2023-02-28T02:00:01.042Z,6.38
2023-02-28T02:02:29.953Z,6.60
2023-02-28T02:05:10.051Z,8.30
2023-02-28T02:07:40.502Z,8.57
2023-02-28T02:10:20.359Z,10.40
2023-02-28T02:13:05.101Z,10.18
2023-02-28T02:16:16.342Z,13.35
2023-02-28T02:19:00.854Z,9.15
2023-02-28T02:22:09.729Z,11.35
2023-02-28T02:24:48.410Z,9.48
2023-02-28T02:27:37.794Z,7.65
2023-02-28T02:30:29.186Z,9.50
2023-02-28T02:33:14.831Z,7.15
2023-02-28T02:35:52.252Z,8.00
2023-02-28T02:38:40.886Z,7.40
2023-02-28T02:41:16.763Z,9.32
2023-02-28T02:43:52.165Z,8.80
2023-02-28T02:46:35.791Z,8.05
2023-02-28T02:49:07.312Z,9.55
2023-02-28T02:51:35.889Z,7.80
2023-02-28T02:54:20.697Z,11.57
2023-02-28T02:56:49.304Z,11.10
2023-02-28T02:59:22.205Z,12.30
2023-02-28T03:01:57.155Z,7.40
2023-02-28T03:04:26.068Z,10.20
2023-02-28T03:06:55.773Z,8.77
2023-02-28T03:09:26.863Z,10.07
2023-02-28T03:11:57.025Z,7.40
2023-02-28T03:14:41.369Z,6.90
2023-02-28T03:17:11.302Z,9.88
2023-02-28T03:19:40.873Z,7.95
2023-02-28T03:25:32.769Z,7.80
2023-02-28T03:28:21.070Z,7.38
2023-02-28T03:31:13.386Z,8.07
2023-02-28T03:33:45.760Z,7.28
2023-02-28T03:36:18.777Z,7.18
2023-02-28T03:38:50.936Z,8.63
2023-02-28T03:41:41.568Z,9.23
2023-02-28T03:44:17.032Z,7.85
2023-02-28T03:46:54.478Z,7.55
2023-02-28T03:49:29.785Z,10.65
2023-02-28T03:52:00.295Z,7.00
2023-02-28T03:54:36.183Z,7.80
2023-02-28T03:57:14.821Z,8.20
2023-02-28T03:59:48.166Z,9.75
2023-02-28T04:02:14.995Z,8.70
2023-02-28T04:04:46.121Z,9.20
2023-02-28T04:07:13.439Z,8.32
2023-02-28T04:09:40.318Z,7.72
2023-02-28T04:12:07.463Z,7.30
2023-02-28T04:14:34.405Z,7.18
2023-02-28T04:17:01.260Z,7.65
2023-02-28T04:19:28.251Z,7.03
2023-02-28T04:21:55.520Z,8.13
2023-02-28T04:24:25.358Z,10.02
2023-02-28T04:26:54.771Z,7.57
2023-02-28T04:29:28.058Z,9.30
2023-02-28T04:31:55.496Z,7.03
2023-02-28T04:34:22.577Z,7.75
2023-02-28T04:37:10.402Z,7.03
2023-02-28T04:39:39.882Z,7.50
2023-02-28T04:42:07.123Z,9.10
2023-02-28T04:44:33.996Z,7.50
2023-02-28T04:47:00.908Z,7.78
2023-02-28T04:49:27.890Z,9.75
2023-02-28T04:51:54.769Z,8.85
2023-02-28T04:54:21.676Z,7.65
2023-02-28T04:56:50.804Z,7.72
2023-02-28T04:59:17.868Z,8.43
2023-02-28T05:01:48.409Z,9.18
2023-02-28T05:04:15.811Z,8.60
2023-02-28T05:06:42.730Z,7.25
2023-02-28T05:09:09.562Z,8.52
2023-02-28T05:11:36.899Z,8.15
2023-02-28T05:14:05.529Z,8.02
2023-02-28T05:16:33.291Z,8.52
2023-02-28T05:19:00.520Z,9.13
2023-02-28T05:21:33.365Z,8.00
2023-02-28T05:24:02.546Z,7.38
2023-02-28T05:26:29.987Z,7.88
2023-02-28T05:28:57.250Z,7.32
2023-02-28T05:31:24.427Z,8.25
2023-02-28T05:33:51.297Z,7.80
2023-02-28T05:36:20.545Z,8.85
2023-02-28T05:38:49.220Z,8.38
2023-02-28T05:41:18.087Z,9.02
2023-02-28T05:43:45.638Z,7.32
2023-02-28T05:46:13.730Z,8.98
2023-02-28T05:48:43.259Z,10.23
2023-02-28T05:53:37.690Z,7.78
2023-02-28T05:56:05.276Z,9.30
2023-02-28T05:58:32.376Z,7.50
2023-02-28T06:01:02.348Z,8.32
2023-02-28T06:03:29.337Z,9.43
2023-02-28T06:05:56.254Z,9.57
2023-02-28T06:08:23.223Z,7.82
2023-02-28T06:10:50.106Z,6.88
2023-02-28T06:13:17.037Z,7.03
2023-02-28T06:15:44.021Z,8.63
2023-02-28T06:18:11.102Z,7.93
2023-02-28T06:20:38.013Z,6.88
2023-02-28T06:23:04.866Z,7.75
2023-02-28T06:25:34.796Z,8.82
2023-02-28T06:28:01.800Z,7.32
2023-02-28T06:30:31.028Z,10.15
2023-02-28T06:32:57.950Z,8.25
2023-02-28T06:35:24.872Z,9.65
2023-02-28T06:37:51.785Z,7.63
2023-02-28T06:40:18.723Z,9.40
2023-02-28T06:42:45.559Z,8.15
2023-02-28T06:45:13.198Z,7.63
2023-02-28T06:47:41.790Z,8.70
2023-02-28T06:50:12.023Z,7.53
2023-02-28T06:52:39.087Z,8.95
2023-02-28T06:55:08.142Z,8.27
2023-02-28T06:57:36.713Z,7.93
2023-02-28T07:00:08.864Z,7.38
2023-02-28T07:02:39.384Z,7.90
2023-02-28T07:05:07.169Z,7.22
2023-02-28T07:07:34.385Z,7.45
2023-02-28T07:10:01.499Z,6.93
2023-02-28T07:12:28.517Z,7.10
2023-02-28T07:14:56.940Z,9.15
2023-02-28T07:17:24.013Z,7.65
2023-02-28T07:19:50.878Z,8.77
2023-02-28T07:22:17.875Z,9.73
2023-02-28T07:24:44.752Z,8.57
2023-02-28T07:27:11.802Z,7.70
2023-02-28T07:29:39.286Z,8.82
2023-02-28T07:32:06.341Z,7.15
2023-02-28T07:34:33.331Z,8.55
2023-02-28T07:37:00.941Z,8.10
2023-02-28T07:39:27.845Z,8.45
2023-02-28T07:41:54.764Z,8.02
2023-02-28T07:44:22.202Z,8.45
2023-02-28T07:46:49.448Z,10.90
2023-02-28T07:49:16.461Z,9.52
2023-02-28T07:51:43.397Z,8.57
2023-02-28T07:54:10.442Z,7.28
2023-02-28T07:56:37.388Z,10.68
2023-02-28T07:59:04.350Z,7.93
2023-02-28T08:01:31.595Z,10.77
2023-02-28T08:03:58.702Z,9.88
2023-02-28T08:06:27.432Z,12.63
2023-02-28T08:08:54.783Z,10.27
2023-02-28T08:11:21.736Z,7.45
2023-02-28T08:13:51.876Z,9.80
2023-02-28T08:16:23.061Z,12.60
2023-02-28T08:18:51.721Z,8.45
2023-02-28T08:21:20.100Z,9.90
2023-02-28T08:23:51.808Z,9.13
2023-02-28T08:26:19.706Z,9.63
2023-02-28T08:28:47.454Z,10.40
2023-02-28T08:31:17.178Z,9.00
2023-02-28T08:33:45.698Z,11.45
2023-02-28T08:36:13.171Z,11.50
2023-02-28T08:38:40.355Z,10.20
2023-02-28T08:41:10.378Z,10.30
2023-02-28T08:43:37.862Z,7.80
2023-02-28T08:46:06.279Z,5.50
2023-02-28T08:48:35.498Z,7.28
2023-02-28T08:51:08.525Z,5.82
2023-02-28T08:53:37.079Z,4.75
2023-02-28T08:56:12.354Z,3.63
2023-02-28T08:58:39.626Z,4.70
2023-02-28T09:01:28.498Z,4.40
2023-02-28T09:03:59.011Z,4.10
2023-02-28T09:06:28.205Z,5.97
2023-02-28T09:08:59.463Z,5.32
2023-02-28T09:11:26.558Z,4.65
2023-02-28T09:13:53.644Z,5.03
2023-02-28T09:16:20.931Z,3.55
2023-02-28T09:18:48.947Z,5.88
2023-02-28T09:21:18.984Z,4.15
2023-02-28T09:23:48.213Z,3.95
2023-02-28T09:26:17.313Z,3.67
2023-02-28T09:28:44.828Z,4.57
2023-02-28T09:31:15.124Z,5.47
2023-02-28T09:33:42.250Z,3.90
2023-02-28T09:36:09.258Z,4.25
2023-02-28T09:38:36.986Z,4.78
2023-02-28T09:41:11.718Z,4.30
2023-02-28T09:43:42.848Z,3.92
2023-02-28T09:46:15.599Z,4.75
2023-02-28T09:48:47.295Z,4.95
2023-02-28T09:51:31.389Z,5.35
2023-02-28T09:54:01.976Z,4.20
2023-02-28T09:56:37.017Z,4.70
2023-02-28T09:59:11.311Z,4.30
2023-02-28T10:01:44.036Z,4.20
2023-02-28T10:04:23.962Z,3.15
2023-02-28T10:06:51.935Z,4.95
2023-02-28T10:09:21.809Z,5.20
2023-02-28T10:11:51.718Z,3.05
2023-02-28T10:14:29.271Z,3.70
2023-02-28T10:17:00.256Z,5.35
2023-02-28T10:19:45.453Z,3.38
2023-02-28T10:22:35.271Z,3.15
2023-02-28T10:25:06.966Z,3.25
2023-02-28T10:27:35.789Z,3.42
2023-02-28T10:30:03.744Z,3.70
2023-02-28T10:32:36.321Z,6.68
2023-02-28T10:35:25.128Z,3.78
2023-02-28T10:38:01.770Z,4.05
2023-02-28T10:40:33.655Z,4.63
2023-02-28T10:43:01.929Z,3.33
2023-02-28T10:45:35.854Z,4.40
2023-02-28T10:48:06.412Z,3.03
2023-02-28T10:50:46.234Z,3.20
2023-02-28T10:53:19.104Z,3.55
2023-02-28T10:55:46.105Z,3.00
2023-02-28T10:58:23.433Z,3.08
2023-02-28T11:00:51.941Z,3.15
2023-02-28T11:03:34.394Z,3.20
2023-02-28T11:06:14.222Z,3.08
2023-02-28T11:08:50.509Z,3.17
2023-02-28T11:11:18.262Z,3.03
2023-02-28T11:13:47.027Z,2.58
2023-02-28T11:16:16.503Z,3.50
2023-02-28T11:21:30.672Z,2.92
2023-02-28T11:24:04.946Z,3.25
2023-02-28T11:26:58.388Z,4.97
2023-02-28T11:29:28.489Z,4.72
2023-02-28T11:32:09.712Z,2.85
2023-02-28T11:34:38.554Z,3.97
2023-02-28T11:37:11.562Z,4.03
2023-02-28T11:39:38.419Z,3.88
2023-02-28T11:42:42.868Z,2.90
2023-02-28T11:45:21.509Z,2.38
2023-02-28T11:48:10.021Z,2.90
2023-02-28T11:50:54.808Z,2.88
2023-02-28T11:53:36.734Z,3.65
2023-02-28T11:56:15.026Z,2.92
2023-02-28T11:58:47.215Z,4.13
2023-02-28T12:01:36.124Z,3.38
2023-02-28T12:04:02.956Z,5.32
2023-02-28T12:06:57.659Z,4.60
2023-02-28T12:09:53.604Z,4.25
2023-02-28T12:12:39.403Z,4.30
2023-02-28T12:15:09.285Z,3.13
2023-02-28T12:17:51.587Z,5.57
2023-02-28T12:20:37.103Z,3.97
2023-02-28T12:23:19.109Z,3.15
2023-02-28T12:26:10.560Z,5.25
2023-02-28T12:28:45.169Z,4.22
2023-02-28T12:31:23.144Z,4.18
2023-02-28T12:34:06.053Z,7.97
2023-02-28T12:36:36.671Z,5.50
2023-02-28T12:39:19.676Z,4.03
2023-02-28T12:41:59.442Z,5.55
2023-02-28T12:44:35.376Z,4.78
2023-02-28T12:47:09.958Z,8.77
2023-02-28T12:49:59.371Z,6.55
2023-02-28T12:53:04.315Z,4.63
2023-02-28T12:55:54.552Z,7.03
2023-02-28T12:58:42.193Z,11.57
2023-02-28T13:01:34.997Z,3.25
2023-02-28T13:04:39.530Z,3.65
2023-02-28T13:07:41.683Z,5.25
2023-02-28T13:10:09.368Z,4.18
2023-02-28T13:12:37.083Z,4.43
2023-02-28T13:15:22.187Z,5.47
2023-02-28T13:17:54.280Z,3.10
2023-02-28T13:20:38.305Z,3.15
2023-02-28T13:23:25.194Z,3.13
2023-02-28T13:25:55.410Z,4.30
2023-02-28T13:29:02.083Z,3.35
2023-02-28T13:31:29.646Z,2.70
2023-02-28T13:34:00.058Z,2.40
2023-02-28T13:36:31.099Z,2.80
2023-02-28T13:39:21.836Z,3.40
2023-02-28T13:41:49.121Z,2.20
2023-02-28T13:44:27.421Z,5.18
2023-02-28T13:46:57.078Z,3.13
2023-02-28T13:49:26.753Z,3.08
2023-02-28T13:52:09.688Z,2.95
2023-02-28T13:54:46.123Z,2.58
2023-02-28T13:57:39.953Z,3.83
2023-02-28T14:00:21.799Z,2.97
2023-02-28T14:03:11.961Z,2.70
2023-02-28T14:05:39.870Z,3.20
2023-02-28T14:08:14.734Z,4.38
2023-02-28T14:11:03.387Z,2.78
2023-02-28T14:13:48.351Z,2.80
2023-02-28T14:16:21.261Z,3.75
2023-02-28T14:19:00.059Z,4.22
2023-02-28T14:21:35.203Z,2.90
2023-02-28T14:24:44.505Z,3.05
2023-02-28T14:27:27.223Z,2.80
2023-02-28T14:30:07.961Z,2.30
2023-02-28T14:33:00.601Z,3.58
2023-02-28T14:35:44.662Z,3.20
2023-02-28T14:38:26.274Z,2.65
2023-02-28T14:40:55.986Z,3.65
2023-02-28T14:43:28.848Z,3.60
2023-02-28T14:46:00.300Z,2.70
2023-02-28T14:48:27.994Z,2.65
2023-02-28T14:51:00.611Z,5.10
2023-02-28T14:53:31.279Z,4.35
2023-02-28T14:55:58.186Z,2.90
2023-02-28T14:58:30.547Z,4.82
2023-02-28T15:01:08.207Z,7.03
2023-02-28T15:03:38.913Z,2.70
2023-02-28T15:06:13.109Z,5.43
2023-02-28T15:08:45.695Z,2.80
2023-02-28T15:11:20.189Z,2.50
2023-02-28T15:13:56.526Z,2.80
2023-02-28T15:16:28.503Z,2.60
2023-02-28T15:19:00.133Z,4.20
2023-02-28T15:21:38.910Z,2.45
2023-02-28T15:24:09.303Z,3.50
2023-02-28T15:26:46.929Z,4.47
2023-02-28T15:29:17.660Z,2.65
2023-02-28T15:31:57.579Z,2.78
2023-02-28T15:34:43.429Z,3.25
2023-02-28T15:37:26.221Z,3.92
2023-02-28T15:39:54.750Z,4.15
2023-02-28T15:42:24.384Z,4.68
2023-02-28T15:44:51.557Z,3.55
2023-02-28T15:47:24.374Z,3.75
2023-02-28T15:50:03.446Z,5.68
2023-02-28T15:52:42.515Z,11.05
2023-02-28T15:55:13.795Z,11.00
2023-02-28T15:57:41.996Z,5.68
2023-02-28T16:00:14.836Z,3.22
2023-02-28T16:02:42.172Z,4.68
2023-02-28T16:05:09.452Z,5.00
2023-02-28T16:07:42.603Z,3.53
2023-02-28T16:10:11.908Z,4.10
2023-02-28T16:12:41.613Z,5.18
2023-02-28T16:15:28.041Z,3.92
2023-02-28T16:17:55.820Z,3.22
2023-02-28T16:20:28.352Z,3.75
2023-02-28T16:22:55.644Z,5.88
2023-02-28T16:25:29.424Z,3.40
2023-02-28T16:27:58.556Z,3.15
2023-02-28T16:32:56.606Z,4.53
2023-02-28T16:35:23.952Z,3.65
2023-02-28T16:37:54.392Z,3.67
2023-02-28T16:40:26.686Z,4.30
2023-02-28T16:42:56.761Z,3.22
2023-02-28T16:45:27.880Z,3.10
2023-02-28T16:47:55.912Z,3.10
2023-02-28T16:50:28.911Z,3.70
2023-02-28T16:52:56.875Z,3.63
2023-02-28T16:55:25.490Z,3.65
2023-02-28T16:57:58.010Z,3.63
2023-02-28T17:00:26.298Z,3.22
2023-02-28T17:02:53.537Z,3.45
2023-02-28T17:05:21.470Z,4.60
2023-02-28T17:07:49.161Z,3.78
2023-02-28T17:10:24.867Z,4.07
2023-02-28T17:12:52.850Z,4.15
2023-02-28T17:15:21.579Z,5.10
2023-02-28T17:17:50.575Z,3.35
2023-02-28T17:20:23.372Z,3.50
2023-02-28T17:22:54.433Z,4.38
2023-02-28T17:25:22.137Z,6.05
2023-02-28T17:27:49.532Z,3.88
2023-02-28T17:30:19.635Z,3.50
2023-02-28T17:32:46.762Z,4.15
2023-02-28T17:35:14.275Z,3.72
2023-02-28T17:37:41.524Z,5.10
2023-02-28T17:40:20.459Z,5.22
2023-02-28T17:42:47.799Z,3.75
2023-02-28T17:45:15.984Z,4.95
2023-02-28T17:47:46.701Z,4.57
2023-02-28T17:50:19.975Z,4.85
2023-02-28T17:52:47.249Z,4.28
2023-02-28T17:55:16.733Z,4.53
2023-02-28T18:00:14.797Z,4.82
2023-02-28T18:02:41.758Z,5.45
2023-02-28T18:05:09.972Z,5.82
2023-02-28T18:07:40.592Z,5.47
2023-02-28T18:10:20.541Z,6.22
2023-02-28T18:12:49.143Z,5.78
2023-02-28T18:15:17.732Z,6.67
2023-02-28T18:17:44.901Z,6.57
2023-02-28T18:20:12.725Z,5.40
2023-02-28T18:22:41.146Z,4.85
2023-02-28T18:25:10.030Z,5.13
2023-02-28T18:27:37.175Z,6.78
2023-02-28T18:30:05.128Z,7.40
2023-02-28T18:32:32.480Z,6.18
2023-02-28T18:34:59.336Z,7.30
2023-02-28T18:37:27.309Z,5.82
2023-02-28T18:39:54.404Z,6.13
2023-02-28T18:42:21.303Z,7.22
2023-02-28T18:44:48.170Z,6.70
2023-02-28T18:47:15.301Z,6.50
2023-02-28T18:49:42.170Z,7.32
2023-02-28T18:52:09.010Z,6.85
2023-02-28T18:54:36.009Z,6.20
2023-02-28T18:57:03.079Z,8.68
2023-02-28T18:59:30.159Z,7.72
2023-02-28T19:01:58.605Z,6.95
2023-02-28T19:04:25.482Z,8.88
2023-02-28T19:06:52.426Z,8.07
2023-02-28T19:09:19.682Z,13.10
2023-02-28T19:11:46.593Z,8.98
2023-02-28T19:14:13.495Z,10.55
2023-02-28T19:16:40.552Z,8.75
2023-02-28T19:19:07.462Z,8.77
2023-02-28T19:21:37.749Z,9.60
2023-02-28T19:24:08.337Z,8.75
2023-02-28T19:26:35.266Z,11.25
2023-02-28T19:29:04.293Z,10.10
2023-02-28T19:31:31.651Z,11.77
2023-02-28T19:33:59.146Z,8.77
2023-02-28T19:36:27.012Z,10.02
2023-02-28T19:38:53.871Z,9.20
2023-02-28T19:41:20.754Z,9.38
2023-02-28T19:43:47.942Z,8.68
2023-02-28T19:46:15.058Z,8.93
2023-02-28T19:48:44.845Z,10.10
2023-02-28T19:51:13.782Z,10.77
2023-02-28T19:53:42.582Z,10.32
2023-02-28T19:56:10.214Z,10.97
2023-02-28T19:58:37.764Z,9.65
2023-02-28T20:01:16.964Z,8.27
2023-02-28T20:03:47.386Z,7.50
2023-02-28T20:06:15.077Z,8.93
2023-02-28T20:08:42.491Z,7.53
2023-02-28T20:11:15.656Z,11.68
2023-02-28T20:13:43.247Z,8.18
2023-02-28T20:16:11.782Z,8.55
2023-02-28T20:18:40.780Z,9.25
2023-02-28T20:21:13.130Z,9.40
2023-02-28T20:23:41.496Z,8.02
2023-02-28T20:26:08.710Z,9.25
2023-02-28T20:28:36.312Z,8.18
2023-02-28T20:31:03.276Z,7.00
2023-02-28T20:33:30.283Z,8.60
2023-02-28T20:36:01.728Z,8.60
2023-02-28T20:38:28.850Z,7.70
2023-02-28T20:40:58.657Z,8.32
2023-02-28T20:43:26.426Z,7.28
2023-02-28T20:45:54.567Z,7.45
2023-02-28T20:48:22.303Z,7.10
2023-02-28T20:50:54.751Z,8.75
2023-02-28T20:53:22.699Z,7.55
2023-02-28T20:56:11.141Z,7.68
2023-02-28T20:58:38.440Z,8.20
2023-02-28T21:01:17.582Z,9.75
2023-02-28T21:03:50.577Z,7.88
2023-02-28T21:06:22.303Z,8.70
2023-02-28T21:08:49.957Z,7.25
2023-02-28T21:11:20.119Z,9.35
2023-02-28T21:13:48.189Z,7.68
2023-02-28T21:16:17.532Z,9.20
2023-02-28T21:18:45.932Z,8.05
2023-02-28T21:21:15.285Z,7.32
2023-02-28T21:23:43.051Z,8.57
2023-02-28T21:26:12.704Z,10.82
2023-02-28T21:31:16.584Z,9.00
2023-02-28T21:33:46.730Z,7.95
2023-02-28T21:36:19.886Z,7.88
2023-02-28T21:38:48.315Z,12.07
2023-02-28T21:41:18.354Z,8.60
2023-02-28T21:43:46.232Z,9.88
2023-02-28T21:46:19.553Z,8.25
2023-02-28T21:48:48.996Z,7.60
2023-02-28T21:51:19.035Z,9.45
2023-02-28T21:53:46.585Z,7.80
2023-02-28T21:56:23.074Z,9.07
2023-02-28T21:58:50.420Z,8.00
2023-02-28T22:01:22.631Z,7.65
2023-02-28T22:03:50.525Z,9.15
2023-02-28T22:06:22.850Z,8.23
2023-02-28T22:08:55.116Z,10.05
2023-02-28T22:11:23.034Z,7.63
2023-02-28T22:13:53.727Z,7.97
2023-02-28T22:16:22.092Z,9.18
2023-02-28T22:18:49.155Z,8.13
2023-02-28T22:21:17.975Z,8.30
2023-02-28T22:23:45.594Z,8.73
2023-02-28T22:26:15.288Z,9.13
2023-02-28T22:28:42.589Z,10.82
2023-02-28T22:31:19.601Z,8.82
2023-02-28T22:33:47.373Z,11.05
2023-02-28T22:36:16.276Z,9.30
2023-02-28T22:38:44.541Z,9.13
2023-02-28T22:41:12.242Z,9.10
2023-02-28T22:43:43.346Z,8.55
2023-02-28T22:46:12.470Z,9.45
2023-02-28T22:48:39.856Z,9.77
2023-02-28T22:51:12.684Z,9.32
2023-02-28T22:53:40.401Z,9.65
2023-02-28T22:56:09.574Z,10.07
2023-02-28T22:58:36.851Z,10.77
2023-02-28T23:01:13.221Z,8.77
2023-02-28T23:03:40.818Z,10.13
2023-02-28T23:06:18.618Z,8.73
2023-02-28T23:08:45.516Z,10.73
2023-02-28T23:11:21.613Z,9.57
2023-02-28T23:13:58.454Z,10.82
2023-02-28T23:16:35.718Z,9.73
2023-02-28T23:19:08.462Z,11.98
2023-02-28T23:21:35.588Z,10.60
2023-02-28T23:24:03.819Z,10.43
2023-02-28T23:26:32.822Z,11.45
2023-02-28T23:29:00.400Z,10.80
2023-02-28T23:31:27.467Z,11.15
2023-02-28T23:33:56.380Z,12.10
2023-02-28T23:36:23.661Z,10.30
2023-02-28T23:38:52.220Z,9.98
2023-02-28T23:41:21.690Z,11.70
2023-02-28T23:43:49.719Z,11.40
2023-02-28T23:46:18.746Z,11.32
2023-02-28T23:48:45.776Z,10.32
2023-02-28T23:51:16.734Z,12.75
2023-02-28T23:53:46.946Z,12.95
2023-02-28T23:56:16.032Z,14.20
2023-02-28T23:58:44.045Z,13.38
